createdAt,value
2023-03-15T00:02:29.066Z,96850.69
2023-03-15T00:06:35.167Z,96853.91
2023-03-15T00:10:41.703Z,96866.09
2023-03-15T00:14:44.994Z,96872.38
2023-03-15T00:18:48.177Z,96868.03
2023-03-15T00:22:52.734Z,96877.56
2023-03-15T00:26:55.601Z,96879.22
2023-03-15T00:31:07.293Z,96893.81
2023-03-15T00:35:13.001Z,96879.22
2023-03-15T00:39:17.830Z,96892.19
2023-03-15T00:43:20.692Z,96887.31
2023-03-15T00:47:24.667Z,96889.91
2023-03-15T00:51:29.038Z,96896.06
2023-03-15T00:55:33.623Z,96897.38
2023-03-15T00:59:36.529Z,96891.50
2023-03-15T01:03:40.129Z,96898.97
2023-03-15T01:07:45.700Z,96897.69
2023-03-15T01:11:50.487Z,96887.28
2023-03-15T01:15:53.549Z,96893.78
2023-03-15T01:19:56.929Z,96892.63
2023-03-15T01:24:00.125Z,96900.06
2023-03-15T01:28:04.713Z,96888.56
2023-03-15T01:32:08.641Z,96892.75
2023-03-15T01:36:13.298Z,96893.22
2023-03-15T01:40:16.244Z,96893.06
2023-03-15T01:44:21.587Z,96889.13
2023-03-15T01:48:27.968Z,96874.25
2023-03-15T01:52:35.514Z,96890.44
2023-03-15T01:56:42.934Z,96887.50
2023-03-15T02:00:47.705Z,96888.31
2023-03-15T02:04:54.545Z,96891.88
2023-03-15T02:09:03.089Z,96880.22
2023-03-15T02:13:08.301Z,96884.09
2023-03-15T02:17:13.220Z,96885.19
2023-03-15T02:21:27.647Z,96893.63
2023-03-15T02:25:39.029Z,96898.81
2023-03-15T02:29:43.697Z,96893.63
2023-03-15T02:33:48.584Z,96896.88
2023-03-15T02:37:52.588Z,96896.88
2023-03-15T02:41:58.768Z,96900.41
2023-03-15T02:46:05.466Z,96909.00
2023-03-15T02:50:09.369Z,96919.00
2023-03-15T02:54:12.573Z,96919.97
2023-03-15T02:58:15.574Z,96919.34
2023-03-15T03:02:21.140Z,96924.00
2023-03-15T03:06:24.404Z,96924.00
2023-03-15T03:10:27.752Z,96932.75
2023-03-15T03:14:31.286Z,96929.50
2023-03-15T03:18:36.343Z,96922.97
2023-03-15T03:22:39.895Z,96929.63
2023-03-15T03:26:46.474Z,96938.22
2023-03-15T03:30:49.437Z,96933.34
2023-03-15T03:34:54.277Z,96937.69
2023-03-15T03:38:57.304Z,96940.44
2023-03-15T03:43:00.609Z,96946.06
2023-03-15T03:47:03.520Z,96941.88
2023-03-15T03:51:08.416Z,96949.00
2023-03-15T03:55:13.736Z,96952.97
2023-03-15T03:59:17.244Z,96966.25
2023-03-15T04:03:20.922Z,96974.63
2023-03-15T04:07:25.686Z,96979.41
2023-03-15T04:11:28.600Z,96981.97
2023-03-15T04:15:32.168Z,96987.44
2023-03-15T04:19:35.033Z,96986.28
2023-03-15T04:23:40.213Z,96997.41
2023-03-15T04:27:43.250Z,97001.66
2023-03-15T04:31:47.362Z,97004.88
2023-03-15T04:35:52.729Z,97014.28
2023-03-15T04:40:35.507Z,97032.91
2023-03-15T04:44:38.371Z,97036.00
2023-03-15T04:48:42.201Z,97043.47
2023-03-15T04:52:45.089Z,97044.78
2023-03-15T04:56:49.736Z,97052.91
2023-03-15T05:00:54.277Z,97063.63
2023-03-15T05:04:57.970Z,97063.19
2023-03-15T05:09:01.184Z,97061.41
2023-03-15T05:13:05.784Z,97070.66
2023-03-15T05:17:09.151Z,97084.41
2023-03-15T05:21:13.039Z,97089.88
2023-03-15T05:25:16.669Z,97090.16
2023-03-15T05:29:21.764Z,97091.81
2023-03-15T05:33:24.693Z,97096.84
2023-03-15T05:37:28.348Z,97102.81
2023-03-15T05:41:31.322Z,97113.16
2023-03-15T05:45:36.385Z,97126.41
2023-03-15T05:49:39.488Z,97135.28
2023-03-15T05:53:44.653Z,97134.78
2023-03-15T05:57:49.074Z,97150.91
2023-03-15T06:01:53.828Z,97155.69
2023-03-15T06:05:57.071Z,97161.47
2023-03-15T06:10:00.295Z,97169.13
2023-03-15T06:14:03.788Z,97183.91
2023-03-15T06:18:09.019Z,97201.25
2023-03-15T06:22:12.333Z,97219.69
2023-03-15T06:26:16.324Z,97225.22
2023-03-15T06:30:20.634Z,97259.56
2023-03-15T06:34:27.985Z,97269.38
2023-03-15T06:38:31.277Z,97294.63
2023-03-15T06:42:34.831Z,97306.44
2023-03-15T06:46:38.096Z,97320.25
2023-03-15T06:50:47.295Z,97333.56
2023-03-15T06:54:50.787Z,97341.97
2023-03-15T06:58:54.160Z,97359.91
2023-03-15T07:02:57.217Z,97377.38
2023-03-15T07:07:01.802Z,97394.56
2023-03-15T07:11:06.513Z,97413.56
2023-03-15T07:15:10.882Z,97418.81
2023-03-15T07:19:13.853Z,97441.19
2023-03-15T07:23:19.643Z,97472.91
2023-03-15T07:27:22.769Z,97491.41
2023-03-15T07:31:26.771Z,97499.38
2023-03-15T07:35:30.012Z,97520.09
2023-03-15T07:39:35.082Z,97530.84
2023-03-15T07:43:38.233Z,97545.13
2023-03-15T07:47:44.198Z,97549.09
2023-03-15T07:51:47.159Z,97560.22
2023-03-15T07:55:52.090Z,97569.13
2023-03-15T07:59:55.390Z,97571.22
2023-03-15T08:03:58.966Z,97573.91
2023-03-15T08:08:01.888Z,97589.13
2023-03-15T08:12:06.950Z,97593.81
2023-03-15T08:16:10.008Z,97607.50
2023-03-15T08:20:34.166Z,97603.06
2023-03-15T08:24:37.303Z,97625.97
2023-03-15T08:28:42.968Z,97632.88
2023-03-15T08:32:47.785Z,97642.69
2023-03-15T08:36:51.791Z,97647.38
2023-03-15T08:40:57.917Z,97661.91
2023-03-15T08:45:02.852Z,97659.28
2023-03-15T08:49:05.915Z,97655.03
2023-03-15T08:53:09.894Z,97658.31
2023-03-15T08:57:13.694Z,97656.25
2023-03-15T09:01:18.244Z,97658.41
2023-03-15T09:05:23.092Z,97665.84
2023-03-15T09:09:26.243Z,97656.97
2023-03-15T09:13:30.485Z,97654.91
2023-03-15T09:17:34.800Z,97651.72
2023-03-15T09:21:38.666Z,97653.97
2023-03-15T09:25:41.833Z,97647.22
2023-03-15T09:29:46.761Z,97649.22
2023-03-15T09:33:51.049Z,97636.75
2023-03-15T09:37:54.472Z,97643.31
2023-03-15T09:41:59.040Z,97640.22
2023-03-15T09:46:12.465Z,97630.94
2023-03-15T09:50:22.895Z,97630.19
2023-03-15T09:54:33.886Z,97635.25
2023-03-15T09:58:37.428Z,97638.41
2023-03-15T10:02:48.475Z,97629.72
2023-03-15T10:06:56.819Z,97629.03
2023-03-15T10:11:10.880Z,97633.03
2023-03-15T10:15:28.411Z,97625.06
2023-03-15T10:19:41.928Z,97609.84
2023-03-15T10:23:51.551Z,97605.59
2023-03-15T10:27:59.098Z,97618.72
2023-03-15T10:32:02.153Z,97612.50
2023-03-15T10:36:15.832Z,97608.50
2023-03-15T10:40:40.465Z,97615.19
2023-03-15T10:44:43.906Z,97618.53
2023-03-15T10:48:58.598Z,97615.19
2023-03-15T10:53:10.823Z,97611.59
2023-03-15T10:57:19.285Z,97615.66
2023-03-15T11:01:28.486Z,97608.34
2023-03-15T11:05:33.519Z,97617.44
2023-03-15T11:09:41.472Z,97621.00
2023-03-15T11:13:59.677Z,97606.00
2023-03-15T11:18:03.051Z,97611.19
2023-03-15T11:22:06.037Z,97619.66
2023-03-15T11:26:25.778Z,97621.16
2023-03-15T11:30:36.022Z,97618.16
2023-03-15T11:34:44.519Z,97611.34
2023-03-15T11:38:48.797Z,97615.09
2023-03-15T11:42:59.743Z,97614.78
2023-03-15T11:47:12.310Z,97616.25
2023-03-15T11:51:16.400Z,97617.56
2023-03-15T11:55:24.036Z,97626.66
2023-03-15T11:59:30.957Z,97625.50
2023-03-15T12:03:39.466Z,97621.56
2023-03-15T12:08:21.883Z,97622.38
2023-03-15T12:12:45.916Z,97618.81
2023-03-15T12:16:49.700Z,97616.88
2023-03-15T12:21:07.558Z,97622.41
2023-03-15T12:25:16.126Z,97618.84
2023-03-15T12:29:26.130Z,97626.97
2023-03-15T12:33:32.413Z,97622.16
2023-03-15T12:37:44.640Z,97620.91
2023-03-15T12:41:50.744Z,97609.69
2023-03-15T12:45:53.776Z,97600.88
2023-03-15T12:49:57.734Z,97605.63
2023-03-15T12:54:04.652Z,97623.19
2023-03-15T12:58:13.690Z,97610.97
2023-03-15T13:02:43.464Z,97615.66
2023-03-15T13:07:15.700Z,97613.22
2023-03-15T13:11:26.417Z,97621.44
2023-03-15T13:15:33.096Z,97623.38
2023-03-15T13:19:42.404Z,97626.59
2023-03-15T13:23:52.070Z,97620.38
2023-03-15T13:28:00.318Z,97630.38
2023-03-15T13:32:26.377Z,97640.41
2023-03-15T13:36:44.935Z,97635.91
2023-03-15T13:41:07.910Z,97622.63
2023-03-15T13:45:24.224Z,97634.78
2023-03-15T13:49:53.092Z,97639.63
2023-03-15T13:54:06.552Z,97642.41
2023-03-15T13:58:16.307Z,97638.19
2023-03-15T14:02:36.381Z,97633.94
2023-03-15T14:06:40.037Z,97635.31
2023-03-15T14:10:43.640Z,97641.06
2023-03-15T14:14:52.004Z,97645.50
2023-03-15T14:18:57.383Z,97647.31
2023-03-15T14:23:03.505Z,97645.72
2023-03-15T14:27:09.616Z,97646.06
2023-03-15T14:31:24.699Z,97648.31
2023-03-15T14:35:32.674Z,97639.44
2023-03-15T14:39:55.088Z,97647.19
2023-03-15T14:43:58.733Z,97652.28
2023-03-15T14:48:05.748Z,97647.84
2023-03-15T14:52:14.722Z,97651.91
2023-03-15T14:56:19.798Z,97640.78
2023-03-15T15:00:24.974Z,97639.34
2023-03-15T15:04:34.270Z,97640.16
2023-03-15T15:08:41.900Z,97633.56
2023-03-15T15:12:48.513Z,97628.75
2023-03-15T15:16:53.736Z,97631.53
2023-03-15T15:20:57.884Z,97615.75
2023-03-15T15:25:02.285Z,97618.66
2023-03-15T15:29:05.583Z,97606.25
2023-03-15T15:33:08.602Z,97609.84
2023-03-15T15:41:25.046Z,97616.38
2023-03-15T15:45:27.969Z,97618.97
2023-03-15T15:49:31.321Z,97604.25
2023-03-15T15:53:34.566Z,97609.19
2023-03-15T15:57:39.119Z,97611.38
2023-03-15T16:01:59.023Z,97608.53
2023-03-15T16:06:03.761Z,97609.78
2023-03-15T16:10:08.784Z,97615.59
2023-03-15T16:14:14.528Z,97608.06
2023-03-15T16:18:17.428Z,97623.91
2023-03-15T16:22:23.186Z,97620.69
2023-03-15T16:26:26.403Z,97626.00
2023-03-15T16:30:33.785Z,97627.03
2023-03-15T16:34:36.790Z,97628.72
2023-03-15T16:38:40.050Z,97631.84
2023-03-15T16:42:42.966Z,97636.72
2023-03-15T16:46:48.616Z,97641.31
2023-03-15T16:50:51.924Z,97658.41
2023-03-15T16:54:55.230Z,97666.78
2023-03-15T16:58:58.519Z,97674.97
2023-03-15T17:03:03.617Z,97685.19
2023-03-15T17:07:06.905Z,97700.59
2023-03-15T17:11:10.977Z,97710.53
2023-03-15T17:15:14.301Z,97728.25
2023-03-15T17:19:19.166Z,97731.09
2023-03-15T17:23:22.441Z,97739.84
2023-03-15T17:27:33.215Z,97751.69
2023-03-15T17:31:36.972Z,97766.25
2023-03-15T17:35:57.885Z,97772.66
2023-03-15T17:40:01.201Z,97776.72
2023-03-15T17:44:06.361Z,97785.16
2023-03-15T17:48:09.721Z,97802.97
2023-03-15T17:52:17.631Z,97805.38
2023-03-15T17:56:22.885Z,97809.44
2023-03-15T18:00:26.373Z,97821.94
2023-03-15T18:04:29.675Z,97820.03
2023-03-15T18:08:38.437Z,97830.88
2023-03-15T18:12:43.274Z,97836.69
2023-03-15T18:16:47.340Z,97844.03
2023-03-15T18:20:54.633Z,97844.41
2023-03-15T18:25:02.399Z,97848.19
2023-03-15T18:29:08.027Z,97849.38
2023-03-15T18:33:12.987Z,97854.91
2023-03-15T18:37:16.658Z,97851.06
2023-03-15T18:41:24.203Z,97860.03
2023-03-15T18:45:29.138Z,97860.53
2023-03-15T18:49:35.733Z,97856.81
2023-03-15T18:53:39.081Z,97862.59
2023-03-15T18:57:45.202Z,97864.16
2023-03-15T19:01:48.352Z,97870.06
2023-03-15T19:05:51.862Z,97869.97
2023-03-15T19:09:54.976Z,97876.44
2023-03-15T19:13:59.996Z,97862.75
2023-03-15T19:18:03.249Z,97876.13
2023-03-15T19:22:06.577Z,97883.16
2023-03-15T19:26:13.963Z,97885.75
2023-03-15T19:30:22.692Z,97887.50
2023-03-15T19:34:25.716Z,97891.63
2023-03-15T19:38:29.709Z,97894.88
2023-03-15T19:42:32.707Z,97903.34
2023-03-15T19:46:39.322Z,97891.94
2023-03-15T19:50:43.000Z,97893.00
2023-03-15T19:54:47.957Z,97897.22
2023-03-15T19:58:51.413Z,97891.03
2023-03-15T20:02:57.350Z,97901.00
2023-03-15T20:07:00.506Z,97915.78
2023-03-15T20:11:05.692Z,97905.97
2023-03-15T20:15:11.080Z,97910.66
2023-03-15T20:19:15.821Z,97919.94
2023-03-15T20:23:19.302Z,97922.63
2023-03-15T20:27:23.197Z,97921.22
2023-03-15T20:31:26.623Z,97925.78
2023-03-15T20:35:32.075Z,97938.00
2023-03-15T20:39:35.504Z,97939.19
2023-03-15T20:43:38.940Z,97954.81
2023-03-15T20:47:42.572Z,97956.91
2023-03-15T20:51:47.502Z,97963.13
2023-03-15T20:55:50.794Z,97966.03
2023-03-15T20:59:54.215Z,97961.22
2023-03-15T21:03:57.587Z,97958.06
2023-03-15T21:08:02.450Z,97963.69
2023-03-15T21:12:06.882Z,97965.78
2023-03-15T21:16:10.487Z,97971.34
2023-03-15T21:20:15.647Z,97977.78
2023-03-15T21:24:20.352Z,97976.72
2023-03-15T21:28:23.359Z,97977.66
2023-03-15T21:32:29.109Z,97980.16
2023-03-15T21:36:32.125Z,97986.00
2023-03-15T21:40:36.658Z,97988.31
2023-03-15T21:44:40.191Z,97989.91
2023-03-15T21:48:43.833Z,97997.38
2023-03-15T21:52:47.087Z,98006.56
2023-03-15T21:56:53.307Z,98007.31
2023-03-15T22:01:00.218Z,98001.91
2023-03-15T22:05:05.928Z,98008.41
2023-03-15T22:09:10.913Z,98027.75
2023-03-15T22:13:15.440Z,98018.13
2023-03-15T22:17:18.710Z,98017.81
2023-03-15T22:21:21.904Z,98010.38
2023-03-15T22:25:25.526Z,98021.03
2023-03-15T22:29:29.859Z,98028.44
2023-03-15T22:33:33.441Z,98035.84
2023-03-15T22:37:36.596Z,98037.31
2023-03-15T22:41:40.090Z,98029.88
2023-03-15T22:45:44.416Z,98033.59
2023-03-15T22:50:06.417Z,98032.16
2023-03-15T22:54:10.291Z,98039.34
2023-03-15T22:58:13.733Z,98033.78
2023-03-15T23:02:18.309Z,98034.81
2023-03-15T23:06:22.623Z,98046.94
2023-03-15T23:10:25.979Z,98052.81
2023-03-15T23:14:29.271Z,98056.09
2023-03-15T23:18:34.677Z,98057.75
2023-03-15T23:22:38.176Z,98057.75
2023-03-15T23:26:42.321Z,98071.44
2023-03-15T23:30:45.970Z,98077.41
2023-03-15T23:34:50.551Z,98070.41
2023-03-15T23:38:53.863Z,98080.50
2023-03-15T23:42:59.425Z,98085.25
2023-03-15T23:47:05.955Z,98078.97
2023-03-15T23:51:13.031Z,98084.66
2023-03-15T23:55:16.208Z,98073.31
2023-03-15T23:59:21.283Z,98086.88
